sensor_id;sensor_type;location;lat;lon;timestamp;P1;durP1;ratioP1;P2;durP2;ratioP2
55224;SDS011;41091;49.400;8.684;2022-07-22T00:00:51;5.05;;;4.60;;
55224;SDS011;41091;49.400;8.684;2022-07-22T00:03:19;5.25;;;4.13;;
55224;SDS011;41091;49.400;8.684;2022-07-22T00:05:45;9.43;;;5.72;;
55224;SDS011;41091;49.400;8.684;2022-07-22T00:08:10;6.82;;;4.32;;
55224;SDS011;41091;49.400;8.684;2022-07-22T00:10:38;7.57;;;5.30;;
55224;SDS011;41091;49.400;8.684;2022-07-22T00:13:06;6.80;;;5.00;;
55224;SDS011;41091;49.400;8.684;2022-07-22T00:15:34;5.75;;;5.00;;
55224;SDS011;41091;49.400;8.684;2022-07-22T00:18:00;6.18;;;5.05;;
55224;SDS011;41091;49.400;8.684;2022-07-22T00:20:25;10.55;;;4.70;;
55224;SDS011;41091;49.400;8.684;2022-07-22T00:22:53;6.60;;;5.10;;
55224;SDS011;41091;49.400;8.684;2022-07-22T00:25:18;5.55;;;5.05;;
55224;SDS011;41091;49.400;8.684;2022-07-22T00:27:46;8.02;;;5.00;;
55224;SDS011;41091;49.400;8.684;2022-07-22T00:30:11;7.13;;;4.70;;
55224;SDS011;41091;49.400;8.684;2022-07-22T00:32:39;4.85;;;4.53;;
55224;SDS011;41091;49.400;8.684;2022-07-22T00:35:05;8.07;;;5.90;;
55224;SDS011;41091;49.400;8.684;2022-07-22T00:37:31;5.82;;;5.10;;
55224;SDS011;41091;49.400;8.684;2022-07-22T00:39:56;5.50;;;5.00;;
55224;SDS011;41091;49.400;8.684;2022-07-22T00:42:22;5.75;;;5.03;;
55224;SDS011;41091;49.400;8.684;2022-07-22T00:44:47;6.07;;;5.45;;
55224;SDS011;41091;49.400;8.684;2022-07-22T00:47:15;8.20;;;5.20;;
55224;SDS011;41091;49.400;8.684;2022-07-22T00:49:42;6.10;;;5.00;;
55224;SDS011;41091;49.400;8.684;2022-07-22T00:52:08;6.03;;;5.00;;
55224;SDS011;41091;49.400;8.684;2022-07-22T00:54:33;5.25;;;4.85;;
55224;SDS011;41091;49.400;8.684;2022-07-22T00:56:59;7.20;;;5.25;;
55224;SDS011;41091;49.400;8.684;2022-07-22T00:59:24;6.43;;;5.82;;
55224;SDS011;41091;49.400;8.684;2022-07-22T01:01:50;6.72;;;5.22;;
55224;SDS011;41091;49.400;8.684;2022-07-22T01:04:16;6.20;;;5.60;;
55224;SDS011;41091;49.400;8.684;2022-07-22T01:06:42;10.18;;;5.30;;
55224;SDS011;41091;49.400;8.684;2022-07-22T01:09:10;7.15;;;5.50;;
55224;SDS011;41091;49.400;8.684;2022-07-22T01:11:36;5.22;;;4.82;;
55224;SDS011;41091;49.400;8.684;2022-07-22T01:14:02;7.03;;;5.22;;
55224;SDS011;41091;49.400;8.684;2022-07-22T01:16:27;8.02;;;4.68;;
55224;SDS011;41091;49.400;8.684;2022-07-22T01:18:53;5.15;;;4.60;;
55224;SDS011;41091;49.400;8.684;2022-07-22T01:21:20;5.63;;;5.18;;
55224;SDS011;41091;49.400;8.684;2022-07-22T01:23:48;5.93;;;5.07;;
55224;SDS011;41091;49.400;8.684;2022-07-22T01:26:18;5.35;;;4.88;;
55224;SDS011;41091;49.400;8.684;2022-07-22T01:28:44;6.97;;;4.93;;
55224;SDS011;41091;49.400;8.684;2022-07-22T01:31:09;5.22;;;4.55;;
55224;SDS011;41091;49.400;8.684;2022-07-22T01:33:35;5.05;;;4.65;;
55224;SDS011;41091;49.400;8.684;2022-07-22T01:36:01;10.15;;;4.95;;
55224;SDS011;41091;49.400;8.684;2022-07-22T01:38:27;7.57;;;4.63;;
55224;SDS011;41091;49.400;8.684;2022-07-22T01:40:53;5.30;;;4.80;;
55224;SDS011;41091;49.400;8.684;2022-07-22T01:43:18;5.20;;;4.32;;
55224;SDS011;41091;49.400;8.684;2022-07-22T01:45:46;7.82;;;4.53;;
55224;SDS011;41091;49.400;8.684;2022-07-22T01:48:15;7.70;;;5.88;;
55224;SDS011;41091;49.400;8.684;2022-07-22T01:50:41;5.53;;;5.03;;
55224;SDS011;41091;49.400;8.684;2022-07-22T01:53:11;9.98;;;6.22;;
55224;SDS011;41091;49.400;8.684;2022-07-22T01:55:36;8.25;;;5.22;;
55224;SDS011;41091;49.400;8.684;2022-07-22T01:58:02;6.15;;;4.60;;
55224;SDS011;41091;49.400;8.684;2022-07-22T02:00:29;5.75;;;4.93;;
55224;SDS011;41091;49.400;8.684;2022-07-22T02:02:54;5.32;;;4.82;;
55224;SDS011;41091;49.400;8.684;2022-07-22T02:05:20;5.80;;;5.28;;
55224;SDS011;41091;49.400;8.684;2022-07-22T02:07:45;11.00;;;5.55;;
55224;SDS011;41091;49.400;8.684;2022-07-22T02:10:11;6.20;;;5.30;;
55224;SDS011;41091;49.400;8.684;2022-07-22T02:12:36;8.07;;;5.72;;
55224;SDS011;41091;49.400;8.684;2022-07-22T02:15:04;5.03;;;4.60;;
55224;SDS011;41091;49.400;8.684;2022-07-22T02:17:30;7.00;;;5.03;;
55224;SDS011;41091;49.400;8.684;2022-07-22T02:19:55;5.30;;;4.90;;
55224;SDS011;41091;49.400;8.684;2022-07-22T02:22:20;8.57;;;4.97;;
55224;SDS011;41091;49.400;8.684;2022-07-22T02:24:46;5.18;;;4.60;;
55224;SDS011;41091;49.400;8.684;2022-07-22T02:27:14;5.53;;;5.00;;
55224;SDS011;41091;49.400;8.684;2022-07-22T02:29:39;5.85;;;5.35;;
55224;SDS011;41091;49.400;8.684;2022-07-22T02:32:06;6.32;;;5.38;;
55224;SDS011;41091;49.400;8.684;2022-07-22T02:34:32;6.05;;;5.38;;
55224;SDS011;41091;49.400;8.684;2022-07-22T02:36:57;5.82;;;5.22;;
55224;SDS011;41091;49.400;8.684;2022-07-22T02:39:23;8.15;;;5.03;;
55224;SDS011;41091;49.400;8.684;2022-07-22T02:41:48;4.93;;;4.35;;
55224;SDS011;41091;49.400;8.684;2022-07-22T02:44:16;6.43;;;5.53;;
55224;SDS011;41091;49.400;8.684;2022-07-22T02:46:44;7.13;;;4.68;;
55224;SDS011;41091;49.400;8.684;2022-07-22T02:49:09;8.50;;;5.35;;
55224;SDS011;41091;49.400;8.684;2022-07-22T02:51:35;9.07;;;5.35;;
55224;SDS011;41091;49.400;8.684;2022-07-22T02:54:00;4.95;;;4.55;;
55224;SDS011;41091;49.400;8.684;2022-07-22T02:56:28;5.35;;;4.85;;
55224;SDS011;41091;49.400;8.684;2022-07-22T02:58:55;5.70;;;5.20;;
55224;SDS011;41091;49.400;8.684;2022-07-22T03:01:21;5.63;;;4.97;;
55224;SDS011;41091;49.400;8.684;2022-07-22T03:03:46;9.18;;;5.18;;
55224;SDS011;41091;49.400;8.684;2022-07-22T03:06:11;5.55;;;5.05;;
55224;SDS011;41091;49.400;8.684;2022-07-22T03:08:37;5.57;;;5.00;;
55224;SDS011;41091;49.400;8.684;2022-07-22T03:11:05;5.00;;;4.55;;
55224;SDS011;41091;49.400;8.684;2022-07-22T03:13:31;4.88;;;4.38;;
55224;SDS011;41091;49.400;8.684;2022-07-22T03:15:59;5.47;;;5.05;;
55224;SDS011;41091;49.400;8.684;2022-07-22T03:18:24;5.05;;;4.57;;
55224;SDS011;41091;49.400;8.684;2022-07-22T03:20:50;5.72;;;5.07;;
55224;SDS011;41091;49.400;8.684;2022-07-22T03:23:15;5.32;;;4.82;;
55224;SDS011;41091;49.400;8.684;2022-07-22T03:25:43;6.00;;;4.53;;
55224;SDS011;41091;49.400;8.684;2022-07-22T03:28:11;7.70;;;5.25;;
55224;SDS011;41091;49.400;8.684;2022-07-22T03:30:36;5.78;;;5.32;;
55224;SDS011;41091;49.400;8.684;2022-07-22T03:33:05;5.05;;;4.65;;
55224;SDS011;41091;49.400;8.684;2022-07-22T03:35:30;24.98;;;5.35;;
55224;SDS011;41091;49.400;8.684;2022-07-22T03:37:58;5.13;;;4.60;;
55224;SDS011;41091;49.400;8.684;2022-07-22T03:40:27;4.72;;;4.35;;
55224;SDS011;41091;49.400;8.684;2022-07-22T03:42:52;8.50;;;5.18;;
55224;SDS011;41091;49.400;8.684;2022-07-22T03:45:20;5.68;;;5.00;;
55224;SDS011;41091;49.400;8.684;2022-07-22T03:47:45;5.80;;;5.05;;
55224;SDS011;41091;49.400;8.684;2022-07-22T03:50:10;5.82;;;5.32;;
55224;SDS011;41091;49.400;8.684;2022-07-22T03:52:36;6.40;;;4.68;;
55224;SDS011;41091;49.400;8.684;2022-07-22T03:55:01;6.00;;;5.40;;
55224;SDS011;41091;49.400;8.684;2022-07-22T03:57:27;7.82;;;4.93;;
55224;SDS011;41091;49.400;8.684;2022-07-22T03:59:55;4.70;;;4.35;;
55224;SDS011;41091;49.400;8.684;2022-07-22T04:02:22;8.93;;;4.50;;
55224;SDS011;41091;49.400;8.684;2022-07-22T04:04:47;7.47;;;4.65;;
55224;SDS011;41091;49.400;8.684;2022-07-22T04:07:13;8.95;;;4.93;;
55224;SDS011;41091;49.400;8.684;2022-07-22T04:09:38;5.60;;;4.70;;
55224;SDS011;41091;49.400;8.684;2022-07-22T04:12:04;5.70;;;4.50;;
55224;SDS011;41091;49.400;8.684;2022-07-22T04:14:30;6.18;;;4.72;;
55224;SDS011;41091;49.400;8.684;2022-07-22T04:16:55;6.63;;;4.28;;
55224;SDS011;41091;49.400;8.684;2022-07-22T04:19:20;5.03;;;4.50;;
55224;SDS011;41091;49.400;8.684;2022-07-22T04:21:48;6.13;;;4.97;;
55224;SDS011;41091;49.400;8.684;2022-07-22T04:24:13;5.22;;;4.68;;
55224;SDS011;41091;49.400;8.684;2022-07-22T04:26:41;8.18;;;4.43;;
55224;SDS011;41091;49.400;8.684;2022-07-22T04:29:11;4.95;;;4.28;;
55224;SDS011;41091;49.400;8.684;2022-07-22T04:31:36;7.13;;;4.75;;
55224;SDS011;41091;49.400;8.684;2022-07-22T04:34:02;9.88;;;4.88;;
55224;SDS011;41091;49.400;8.684;2022-07-22T04:36:27;5.70;;;4.90;;
55224;SDS011;41091;49.400;8.684;2022-07-22T04:38:53;7.75;;;5.55;;
55224;SDS011;41091;49.400;8.684;2022-07-22T04:41:18;5.38;;;4.85;;
55224;SDS011;41091;49.400;8.684;2022-07-22T04:43:46;7.57;;;4.57;;
55224;SDS011;41091;49.400;8.684;2022-07-22T04:46:11;5.35;;;4.38;;
55224;SDS011;41091;49.400;8.684;2022-07-22T04:48:36;21.05;;;9.38;;
55224;SDS011;41091;49.400;8.684;2022-07-22T04:51:02;10.95;;;7.18;;
55224;SDS011;41091;49.400;8.684;2022-07-22T04:53:28;15.80;;;7.13;;
55224;SDS011;41091;49.400;8.684;2022-07-22T04:55:54;12.10;;;7.45;;
55224;SDS011;41091;49.400;8.684;2022-07-22T04:58:21;6.57;;;5.15;;
55224;SDS011;41091;49.400;8.684;2022-07-22T05:00:47;4.85;;;4.40;;
55224;SDS011;41091;49.400;8.684;2022-07-22T05:03:15;5.32;;;4.78;;
55224;SDS011;41091;49.400;8.684;2022-07-22T05:05:40;5.03;;;4.47;;
55224;SDS011;41091;49.400;8.684;2022-07-22T05:08:09;7.28;;;4.05;;
55224;SDS011;41091;49.400;8.684;2022-07-22T05:10:34;5.55;;;4.10;;
55224;SDS011;41091;49.400;8.684;2022-07-22T05:13:01;5.65;;;4.35;;
55224;SDS011;41091;49.400;8.684;2022-07-22T05:15:32;4.35;;;3.95;;
55224;SDS011;41091;49.400;8.684;2022-07-22T05:17:57;4.97;;;4.18;;
55224;SDS011;41091;49.400;8.684;2022-07-22T05:20:23;5.60;;;4.40;;
55224;SDS011;41091;49.400;8.684;2022-07-22T05:22:51;7.22;;;4.63;;
55224;SDS011;41091;49.400;8.684;2022-07-22T05:25:16;4.45;;;4.13;;
55224;SDS011;41091;49.400;8.684;2022-07-22T05:30:14;5.07;;;4.32;;
55224;SDS011;41091;49.400;8.684;2022-07-22T05:32:40;4.25;;;3.95;;
55224;SDS011;41091;49.400;8.684;2022-07-22T05:35:08;4.63;;;4.22;;
55224;SDS011;41091;49.400;8.684;2022-07-22T05:37:35;4.20;;;3.90;;
55224;SDS011;41091;49.400;8.684;2022-07-22T05:40:01;9.63;;;3.90;;
55224;SDS011;41091;49.400;8.684;2022-07-22T05:42:27;9.95;;;4.40;;
55224;SDS011;41091;49.400;8.684;2022-07-22T05:44:52;10.45;;;4.63;;
55224;SDS011;41091;49.400;8.684;2022-07-22T05:47:18;6.63;;;4.03;;
55224;SDS011;41091;49.400;8.684;2022-07-22T05:49:43;5.28;;;4.68;;
55224;SDS011;41091;49.400;8.684;2022-07-22T05:52:13;4.93;;;4.43;;
55224;SDS011;41091;49.400;8.684;2022-07-22T05:54:39;8.43;;;5.07;;
55224;SDS011;41091;49.400;8.684;2022-07-22T05:57:05;5.03;;;4.60;;
55224;SDS011;41091;49.400;8.684;2022-07-22T05:59:36;5.90;;;5.30;;
55224;SDS011;41091;49.400;8.684;2022-07-22T06:02:02;5.03;;;4.10;;
55224;SDS011;41091;49.400;8.684;2022-07-22T06:04:30;7.07;;;4.75;;
55224;SDS011;41091;49.400;8.684;2022-07-22T06:06:58;5.22;;;4.75;;
55224;SDS011;41091;49.400;8.684;2022-07-22T06:09:25;4.47;;;4.18;;
55224;SDS011;41091;49.400;8.684;2022-07-22T06:11:51;6.18;;;4.65;;
55224;SDS011;41091;49.400;8.684;2022-07-22T06:14:18;4.90;;;4.20;;
55224;SDS011;41091;49.400;8.684;2022-07-22T06:16:44;5.28;;;4.28;;
55224;SDS011;41091;49.400;8.684;2022-07-22T06:19:09;4.82;;;4.43;;
55224;SDS011;41091;49.400;8.684;2022-07-22T06:21:37;7.63;;;4.57;;
55224;SDS011;41091;49.400;8.684;2022-07-22T06:24:05;5.65;;;5.15;;
55224;SDS011;41091;49.400;8.684;2022-07-22T06:26:31;5.68;;;4.63;;
55224;SDS011;41091;49.400;8.684;2022-07-22T06:28:58;5.80;;;4.53;;
55224;SDS011;41091;49.400;8.684;2022-07-22T06:31:26;9.75;;;5.10;;
55224;SDS011;41091;49.400;8.684;2022-07-22T06:33:51;5.50;;;4.95;;
55224;SDS011;41091;49.400;8.684;2022-07-22T06:36:19;8.63;;;5.25;;
55224;SDS011;41091;49.400;8.684;2022-07-22T06:38:44;9.52;;;5.00;;
55224;SDS011;41091;49.400;8.684;2022-07-22T06:41:12;5.43;;;4.50;;
55224;SDS011;41091;49.400;8.684;2022-07-22T06:43:40;8.20;;;4.75;;
55224;SDS011;41091;49.400;8.684;2022-07-22T06:46:06;10.10;;;5.53;;
55224;SDS011;41091;49.400;8.684;2022-07-22T06:48:36;6.38;;;5.57;;
55224;SDS011;41091;49.400;8.684;2022-07-22T06:51:01;7.53;;;5.30;;
55224;SDS011;41091;49.400;8.684;2022-07-22T06:53:27;6.60;;;5.90;;
55224;SDS011;41091;49.400;8.684;2022-07-22T06:55:55;6.13;;;5.70;;
55224;SDS011;41091;49.400;8.684;2022-07-22T06:58:20;6.40;;;5.75;;
55224;SDS011;41091;49.400;8.684;2022-07-22T07:00:48;7.70;;;5.43;;
55224;SDS011;41091;49.400;8.684;2022-07-22T07:03:15;7.32;;;4.88;;
55224;SDS011;41091;49.400;8.684;2022-07-22T07:05:41;9.00;;;5.63;;
55224;SDS011;41091;49.400;8.684;2022-07-22T07:08:06;6.30;;;5.45;;
55224;SDS011;41091;49.400;8.684;2022-07-22T07:10:31;6.43;;;5.40;;
55224;SDS011;41091;49.400;8.684;2022-07-22T07:12:57;8.23;;;5.63;;
55224;SDS011;41091;49.400;8.684;2022-07-22T07:15:24;7.35;;;4.68;;
55224;SDS011;41091;49.400;8.684;2022-07-22T07:17:52;6.60;;;4.57;;
55224;SDS011;41091;49.400;8.684;2022-07-22T07:20:21;6.72;;;4.13;;
55224;SDS011;41091;49.400;8.684;2022-07-22T07:22:49;5.18;;;4.63;;
55224;SDS011;41091;49.400;8.684;2022-07-22T07:25:14;6.72;;;4.80;;
55224;SDS011;41091;49.400;8.684;2022-07-22T07:27:42;4.78;;;4.38;;
55224;SDS011;41091;49.400;8.684;2022-07-22T07:30:08;5.85;;;4.80;;
55224;SDS011;41091;49.400;8.684;2022-07-22T07:32:36;5.18;;;4.18;;
55224;SDS011;41091;49.400;8.684;2022-07-22T07:35:06;5.35;;;4.18;;
55224;SDS011;41091;49.400;8.684;2022-07-22T07:37:32;9.57;;;5.78;;
55224;SDS011;41091;49.400;8.684;2022-07-22T07:39:58;6.78;;;4.97;;
55224;SDS011;41091;49.400;8.684;2022-07-22T07:42:23;5.65;;;5.00;;
55224;SDS011;41091;49.400;8.684;2022-07-22T07:44:49;5.85;;;4.82;;
55224;SDS011;41091;49.400;8.684;2022-07-22T07:47:14;12.43;;;4.75;;
55224;SDS011;41091;49.400;8.684;2022-07-22T07:49:43;8.93;;;4.15;;
55224;SDS011;41091;49.400;8.684;2022-07-22T07:52:09;6.45;;;5.72;;
55224;SDS011;41091;49.400;8.684;2022-07-22T07:54:35;7.05;;;5.20;;
55224;SDS011;41091;49.400;8.684;2022-07-22T07:57:01;8.77;;;6.07;;
55224;SDS011;41091;49.400;8.684;2022-07-22T07:59:26;5.57;;;5.00;;
55224;SDS011;41091;49.400;8.684;2022-07-22T08:01:51;9.00;;;4.80;;
55224;SDS011;41091;49.400;8.684;2022-07-22T08:04:17;7.63;;;4.97;;
55224;SDS011;41091;49.400;8.684;2022-07-22T08:06:42;6.88;;;5.85;;
55224;SDS011;41091;49.400;8.684;2022-07-22T08:09:10;6.70;;;4.38;;
55224;SDS011;41091;49.400;8.684;2022-07-22T08:11:35;4.97;;;4.50;;
55224;SDS011;41091;49.400;8.684;2022-07-22T08:14:01;4.75;;;4.45;;
55224;SDS011;41091;49.400;8.684;2022-07-22T08:16:29;6.35;;;4.72;;
55224;SDS011;41091;49.400;8.684;2022-07-22T08:18:54;5.70;;;5.05;;
55224;SDS011;41091;49.400;8.684;2022-07-22T08:21:22;5.95;;;5.10;;
55224;SDS011;41091;49.400;8.684;2022-07-22T08:23:47;5.30;;;4.32;;
55224;SDS011;41091;49.400;8.684;2022-07-22T08:26:18;8.10;;;5.05;;
55224;SDS011;41091;49.400;8.684;2022-07-22T08:28:46;7.70;;;4.60;;
55224;SDS011;41091;49.400;8.684;2022-07-22T08:31:11;5.45;;;4.60;;
55224;SDS011;41091;49.400;8.684;2022-07-22T08:33:41;4.85;;;4.43;;
55224;SDS011;41091;49.400;8.684;2022-07-22T08:36:09;5.55;;;4.30;;
55224;SDS011;41091;49.400;8.684;2022-07-22T08:38:34;7.45;;;5.00;;
55224;SDS011;41091;49.400;8.684;2022-07-22T08:41:03;10.65;;;4.65;;
55224;SDS011;41091;49.400;8.684;2022-07-22T08:43:29;5.30;;;4.38;;
55224;SDS011;41091;49.400;8.684;2022-07-22T08:45:55;6.60;;;4.47;;
55224;SDS011;41091;49.400;8.684;2022-07-22T08:48:21;9.45;;;5.75;;
55224;SDS011;41091;49.400;8.684;2022-07-22T08:50:48;10.93;;;4.68;;
55224;SDS011;41091;49.400;8.684;2022-07-22T08:53:14;7.78;;;5.15;;
55224;SDS011;41091;49.400;8.684;2022-07-22T08:55:45;5.68;;;4.53;;
55224;SDS011;41091;49.400;8.684;2022-07-22T09:00:36;5.13;;;4.68;;
55224;SDS011;41091;49.400;8.684;2022-07-22T09:03:15;5.50;;;4.82;;
55224;SDS011;41091;49.400;8.684;2022-07-22T09:05:47;5.97;;;4.93;;
55224;SDS011;41091;49.400;8.684;2022-07-22T09:08:16;5.82;;;4.35;;
55224;SDS011;41091;49.400;8.684;2022-07-22T09:10:41;6.65;;;4.50;;
55224;SDS011;41091;49.400;8.684;2022-07-22T09:13:08;7.68;;;4.88;;
55224;SDS011;41091;49.400;8.684;2022-07-22T09:15:36;15.73;;;4.45;;
55224;SDS011;41091;49.400;8.684;2022-07-22T09:18:04;7.38;;;4.20;;
55224;SDS011;41091;49.400;8.684;2022-07-22T09:20:30;5.18;;;4.65;;
55224;SDS011;41091;49.400;8.684;2022-07-22T09:22:56;5.82;;;4.78;;
55224;SDS011;41091;49.400;8.684;2022-07-22T09:25:32;6.60;;;4.88;;
55224;SDS011;41091;49.400;8.684;2022-07-22T09:30:33;5.22;;;4.03;;
55224;SDS011;41091;49.400;8.684;2022-07-22T09:33:02;6.13;;;4.22;;
55224;SDS011;41091;49.400;8.684;2022-07-22T09:35:30;6.68;;;4.63;;
55224;SDS011;41091;49.400;8.684;2022-07-22T09:40:26;5.35;;;4.05;;
55224;SDS011;41091;49.400;8.684;2022-07-22T09:42:57;5.07;;;4.75;;
55224;SDS011;41091;49.400;8.684;2022-07-22T09:45:27;11.73;;;5.78;;
55224;SDS011;41091;49.400;8.684;2022-07-22T09:47:54;5.00;;;4.50;;
55224;SDS011;41091;49.400;8.684;2022-07-22T09:50:26;5.50;;;4.97;;
55224;SDS011;41091;49.400;8.684;2022-07-22T09:52:53;10.98;;;4.43;;
55224;SDS011;41091;49.400;8.684;2022-07-22T09:55:20;5.65;;;4.53;;
55224;SDS011;41091;49.400;8.684;2022-07-22T09:57:48;10.95;;;4.85;;
55224;SDS011;41091;49.400;8.684;2022-07-22T10:00:20;4.93;;;4.00;;
55224;SDS011;41091;49.400;8.684;2022-07-22T10:02:50;8.38;;;4.57;;
55224;SDS011;41091;49.400;8.684;2022-07-22T10:05:20;4.60;;;3.90;;
55224;SDS011;41091;49.400;8.684;2022-07-22T10:07:47;6.63;;;4.28;;
55224;SDS011;41091;49.400;8.684;2022-07-22T10:10:14;7.75;;;4.30;;
55224;SDS011;41091;49.400;8.684;2022-07-22T10:12:44;4.75;;;4.35;;
55224;SDS011;41091;49.400;8.684;2022-07-22T10:15:11;4.60;;;4.18;;
55224;SDS011;41091;49.400;8.684;2022-07-22T10:17:38;14.40;;;5.53;;
55224;SDS011;41091;49.400;8.684;2022-07-22T10:20:06;4.73;;;4.40;;
55224;SDS011;41091;49.400;8.684;2022-07-22T10:25:03;5.35;;;4.00;;
55224;SDS011;41091;49.400;8.684;2022-07-22T10:30:23;4.50;;;4.15;;
55224;SDS011;41091;49.400;8.684;2022-07-22T10:33:06;4.75;;;3.88;;
55224;SDS011;41091;49.400;8.684;2022-07-22T10:35:33;4.38;;;3.97;;
55224;SDS011;41091;49.400;8.684;2022-07-22T10:38:03;4.97;;;4.32;;
55224;SDS011;41091;49.400;8.684;2022-07-22T10:40:46;6.60;;;4.60;;
55224;SDS011;41091;49.400;8.684;2022-07-22T10:43:20;4.65;;;4.13;;
55224;SDS011;41091;49.400;8.684;2022-07-22T10:45:50;8.57;;;4.35;;
55224;SDS011;41091;49.400;8.684;2022-07-22T10:48:21;4.82;;;4.45;;
55224;SDS011;41091;49.400;8.684;2022-07-22T10:50:53;5.63;;;4.45;;
55224;SDS011;41091;49.400;8.684;2022-07-22T10:59:10;4.65;;;3.78;;
55224;SDS011;41091;49.400;8.684;2022-07-22T11:01:45;4.65;;;3.92;;
55224;SDS011;41091;49.400;8.684;2022-07-22T11:04:16;3.70;;;3.13;;
55224;SDS011;41091;49.400;8.684;2022-07-22T11:06:42;7.00;;;4.45;;
55224;SDS011;41091;49.400;8.684;2022-07-22T11:09:09;10.25;;;4.55;;
55224;SDS011;41091;49.400;8.684;2022-07-22T11:11:39;5.35;;;4.95;;
55224;SDS011;41091;49.400;8.684;2022-07-22T11:17:03;4.95;;;4.20;;
55224;SDS011;41091;49.400;8.684;2022-07-22T11:19:36;5.18;;;4.10;;
55224;SDS011;41091;49.400;8.684;2022-07-22T11:22:03;4.05;;;3.72;;
55224;SDS011;41091;49.400;8.684;2022-07-22T11:24:33;7.68;;;3.92;;
55224;SDS011;41091;49.400;8.684;2022-07-22T11:26:59;5.07;;;4.68;;
55224;SDS011;41091;49.400;8.684;2022-07-22T11:31:50;4.32;;;3.97;;
55224;SDS011;41091;49.400;8.684;2022-07-22T11:34:16;5.38;;;4.03;;
55224;SDS011;41091;49.400;8.684;2022-07-22T11:36:43;5.28;;;4.78;;
55224;SDS011;41091;49.400;8.684;2022-07-22T11:39:11;4.70;;;4.32;;
55224;SDS011;41091;49.400;8.684;2022-07-22T11:41:37;5.30;;;4.13;;
55224;SDS011;41091;49.400;8.684;2022-07-22T11:44:02;7.22;;;4.03;;
55224;SDS011;41091;49.400;8.684;2022-07-22T11:46:35;4.47;;;3.88;;
55224;SDS011;41091;49.400;8.684;2022-07-22T11:49:04;4.53;;;4.10;;
55224;SDS011;41091;49.400;8.684;2022-07-22T11:51:34;4.40;;;3.97;;
55224;SDS011;41091;49.400;8.684;2022-07-22T11:54:03;4.70;;;4.40;;
55224;SDS011;41091;49.400;8.684;2022-07-22T11:56:34;4.55;;;4.10;;
55224;SDS011;41091;49.400;8.684;2022-07-22T11:59:00;4.57;;;4.18;;
55224;SDS011;41091;49.400;8.684;2022-07-22T12:01:30;6.95;;;3.92;;
55224;SDS011;41091;49.400;8.684;2022-07-22T12:04:01;4.53;;;4.18;;
55224;SDS011;41091;49.400;8.684;2022-07-22T12:06:28;6.80;;;4.35;;
55224;SDS011;41091;49.400;8.684;2022-07-22T12:11:20;6.45;;;3.75;;
55224;SDS011;41091;49.400;8.684;2022-07-22T12:13:48;4.82;;;4.43;;
55224;SDS011;41091;49.400;8.684;2022-07-22T12:18:53;4.20;;;3.72;;
55224;SDS011;41091;49.400;8.684;2022-07-22T12:21:20;4.47;;;3.55;;
55224;SDS011;41091;49.400;8.684;2022-07-22T12:23:50;6.15;;;3.78;;
55224;SDS011;41091;49.400;8.684;2022-07-22T12:26:17;6.35;;;4.38;;
55224;SDS011;41091;49.400;8.684;2022-07-22T12:28:44;6.65;;;4.00;;
55224;SDS011;41091;49.400;8.684;2022-07-22T12:31:10;7.68;;;4.50;;
55224;SDS011;41091;49.400;8.684;2022-07-22T12:33:35;4.57;;;4.03;;
55224;SDS011;41091;49.400;8.684;2022-07-22T12:36:06;14.27;;;5.20;;
55224;SDS011;41091;49.400;8.684;2022-07-22T12:43:51;4.63;;;3.70;;
55224;SDS011;41091;49.400;8.684;2022-07-22T12:46:17;5.53;;;4.30;;
55224;SDS011;41091;49.400;8.684;2022-07-22T12:48:52;4.37;;;4.07;;
55224;SDS011;41091;49.400;8.684;2022-07-22T12:51:18;5.50;;;4.40;;
55224;SDS011;41091;49.400;8.684;2022-07-22T12:53:44;4.38;;;4.00;;
55224;SDS011;41091;49.400;8.684;2022-07-22T12:56:09;6.78;;;4.32;;
55224;SDS011;41091;49.400;8.684;2022-07-22T12:58:38;4.40;;;4.00;;
55224;SDS011;41091;49.400;8.684;2022-07-22T13:01:07;8.20;;;3.53;;
55224;SDS011;41091;49.400;8.684;2022-07-22T13:03:35;6.45;;;4.40;;
55224;SDS011;41091;49.400;8.684;2022-07-22T13:06:01;4.03;;;3.72;;
55224;SDS011;41091;49.400;8.684;2022-07-22T13:08:28;4.38;;;3.95;;
55224;SDS011;41091;49.400;8.684;2022-07-22T13:10:54;4.53;;;3.90;;
55224;SDS011;41091;49.400;8.684;2022-07-22T13:13:23;6.03;;;4.10;;
55224;SDS011;41091;49.400;8.684;2022-07-22T13:15:50;13.13;;;5.20;;
55224;SDS011;41091;49.400;8.684;2022-07-22T13:18:16;15.98;;;5.35;;
55224;SDS011;41091;49.400;8.684;2022-07-22T13:20:41;8.55;;;4.35;;
55224;SDS011;41091;49.400;8.684;2022-07-22T13:23:11;7.30;;;4.18;;
55224;SDS011;41091;49.400;8.684;2022-07-22T13:25:37;5.38;;;3.90;;
55224;SDS011;41091;49.400;8.684;2022-07-22T13:28:02;4.32;;;3.97;;
55224;SDS011;41091;49.400;8.684;2022-07-22T13:30:32;10.77;;;4.22;;
55224;SDS011;41091;49.400;8.684;2022-07-22T13:32:57;4.53;;;4.10;;
55224;SDS011;41091;49.400;8.684;2022-07-22T13:35:25;8.52;;;3.30;;
55224;SDS011;41091;49.400;8.684;2022-07-22T13:37:53;4.13;;;3.83;;
55224;SDS011;41091;49.400;8.684;2022-07-22T13:40:18;5.07;;;3.70;;
55224;SDS011;41091;49.400;8.684;2022-07-22T13:42:43;6.18;;;3.45;;
55224;SDS011;41091;49.400;8.684;2022-07-22T13:45:09;5.63;;;3.53;;
55224;SDS011;41091;49.400;8.684;2022-07-22T13:47:36;6.72;;;3.67;;
55224;SDS011;41091;49.400;8.684;2022-07-22T13:50:04;5.05;;;4.25;;
55224;SDS011;41091;49.400;8.684;2022-07-22T13:52:30;4.15;;;3.85;;
55224;SDS011;41091;49.400;8.684;2022-07-22T13:54:55;3.80;;;3.45;;
55224;SDS011;41091;49.400;8.684;2022-07-22T13:57:20;5.05;;;3.50;;
55224;SDS011;41091;49.400;8.684;2022-07-22T13:59:46;3.88;;;3.50;;
55224;SDS011;41091;49.400;8.684;2022-07-22T14:02:16;4.47;;;3.70;;
55224;SDS011;41091;49.400;8.684;2022-07-22T14:04:44;4.22;;;3.83;;
55224;SDS011;41091;49.400;8.684;2022-07-22T14:07:13;3.13;;;2.92;;
55224;SDS011;41091;49.400;8.684;2022-07-22T14:09:38;5.85;;;3.70;;
55224;SDS011;41091;49.400;8.684;2022-07-22T14:12:04;5.18;;;3.80;;
55224;SDS011;41091;49.400;8.684;2022-07-22T14:14:30;3.83;;;3.47;;
55224;SDS011;41091;49.400;8.684;2022-07-22T14:16:55;4.65;;;4.13;;
55224;SDS011;41091;49.400;8.684;2022-07-22T14:19:21;5.13;;;4.07;;
55224;SDS011;41091;49.400;8.684;2022-07-22T14:21:48;4.47;;;3.95;;
55224;SDS011;41091;49.400;8.684;2022-07-22T14:24:21;4.35;;;4.00;;
55224;SDS011;41091;49.400;8.684;2022-07-22T14:26:47;11.50;;;3.72;;
55224;SDS011;41091;49.400;8.684;2022-07-22T14:29:15;4.57;;;3.65;;
55224;SDS011;41091;49.400;8.684;2022-07-22T14:31:40;4.55;;;4.10;;
55224;SDS011;41091;49.400;8.684;2022-07-22T14:34:08;4.25;;;3.80;;
55224;SDS011;41091;49.400;8.684;2022-07-22T14:36:35;4.30;;;4.00;;
55224;SDS011;41091;49.400;8.684;2022-07-22T14:39:01;8.30;;;3.38;;
55224;SDS011;41091;49.400;8.684;2022-07-22T14:41:26;4.65;;;4.18;;
55224;SDS011;41091;49.400;8.684;2022-07-22T14:43:51;3.70;;;3.50;;
55224;SDS011;41091;49.400;8.684;2022-07-22T14:46:17;4.82;;;3.28;;
55224;SDS011;41091;49.400;8.684;2022-07-22T14:48:42;6.65;;;4.32;;
55224;SDS011;41091;49.400;8.684;2022-07-22T14:51:08;4.22;;;3.83;;
55224;SDS011;41091;49.400;8.684;2022-07-22T14:53:38;7.32;;;3.72;;
55224;SDS011;41091;49.400;8.684;2022-07-22T14:56:04;3.70;;;3.45;;
55224;SDS011;41091;49.400;8.684;2022-07-22T14:58:31;6.85;;;3.60;;
55224;SDS011;41091;49.400;8.684;2022-07-22T15:00:56;8.02;;;3.70;;
55224;SDS011;41091;49.400;8.684;2022-07-22T15:03:22;5.88;;;3.40;;
55224;SDS011;41091;49.400;8.684;2022-07-22T15:05:47;4.05;;;3.65;;
55224;SDS011;41091;49.400;8.684;2022-07-22T15:08:15;3.75;;;3.45;;
55224;SDS011;41091;49.400;8.684;2022-07-22T15:10:40;3.88;;;3.30;;
55224;SDS011;41091;49.400;8.684;2022-07-22T15:13:08;4.93;;;4.32;;
55224;SDS011;41091;49.400;8.684;2022-07-22T15:15:36;5.30;;;3.88;;
55224;SDS011;41091;49.400;8.684;2022-07-22T15:18:02;8.55;;;3.58;;
55224;SDS011;41091;49.400;8.684;2022-07-22T15:20:27;4.18;;;3.88;;
55224;SDS011;41091;49.400;8.684;2022-07-22T15:22:53;7.07;;;3.90;;